sensor_id;sensor_type;location;lat;lon;timestamp;temperature;humidity
4985;DHT22;2509;49.902;8.600;2022-12-11T00:02:45;-1.70;99.90
4985;DHT22;2509;49.902;8.600;2022-12-11T00:05:48;-1.70;99.90
4985;DHT22;2509;49.902;8.600;2022-12-11T00:08:50;-1.70;99.90
4985;DHT22;2509;49.902;8.600;2022-12-11T00:11:53;-1.70;99.90
4985;DHT22;2509;49.902;8.600;2022-12-11T00:14:54;-1.80;99.90
4985;DHT22;2509;49.902;8.600;2022-12-11T00:17:56;-1.80;99.90
4985;DHT22;2509;49.902;8.600;2022-12-11T00:21:01;-1.80;99.90
4985;DHT22;2509;49.902;8.600;2022-12-11T00:24:03;-1.70;99.90
4985;DHT22;2509;49.902;8.600;2022-12-11T00:27:05;-1.70;99.90
4985;DHT22;2509;49.902;8.600;2022-12-11T00:30:08;-1.60;99.90
4985;DHT22;2509;49.902;8.600;2022-12-11T00:33:11;-1.60;99.90
4985;DHT22;2509;49.902;8.600;2022-12-11T00:36:16;-1.50;99.90
4985;DHT22;2509;49.902;8.600;2022-12-11T00:39:18;-1.50;99.90
4985;DHT22;2509;49.902;8.600;2022-12-11T00:42:20;-1.50;99.90
4985;DHT22;2509;49.902;8.600;2022-12-11T00:45:22;-1.40;99.90
4985;DHT22;2509;49.902;8.600;2022-12-11T00:48:24;-1.40;99.90
4985;DHT22;2509;49.902;8.600;2022-12-11T00:51:27;-1.40;99.90
4985;DHT22;2509;49.902;8.600;2022-12-11T00:54:28;-1.40;99.90
4985;DHT22;2509;49.902;8.600;2022-12-11T00:57:30;-1.40;99.90
4985;DHT22;2509;49.902;8.600;2022-12-11T01:00:32;-1.30;99.90
4985;DHT22;2509;49.902;8.600;2022-12-11T01:03:34;-1.30;99.90
4985;DHT22;2509;49.902;8.600;2022-12-11T01:06:38;-1.20;99.90
4985;DHT22;2509;49.902;8.600;2022-12-11T01:09:40;-1.20;99.90
4985;DHT22;2509;49.902;8.600;2022-12-11T01:13:01;-1.20;99.90
4985;DHT22;2509;49.902;8.600;2022-12-11T01:16:06;-1.20;99.90
4985;DHT22;2509;49.902;8.600;2022-12-11T01:19:08;-1.20;99.90
4985;DHT22;2509;49.902;8.600;2022-12-11T01:22:11;-1.20;99.90
4985;DHT22;2509;49.902;8.600;2022-12-11T01:25:13;-1.20;99.90
4985;DHT22;2509;49.902;8.600;2022-12-11T01:28:15;-1.20;99.90
4985;DHT22;2509;49.902;8.600;2022-12-11T01:31:18;-1.20;99.90
4985;DHT22;2509;49.902;8.600;2022-12-11T01:34:20;-1.20;99.90
4985;DHT22;2509;49.902;8.600;2022-12-11T01:37:23;-1.30;99.90
4985;DHT22;2509;49.902;8.600;2022-12-11T01:40:25;-1.30;99.90
4985;DHT22;2509;49.902;8.600;2022-12-11T01:43:27;-1.30;99.90
4985;DHT22;2509;49.902;8.600;2022-12-11T01:46:31;-1.20;99.90
4985;DHT22;2509;49.902;8.600;2022-12-11T01:49:33;-1.30;99.90
4985;DHT22;2509;49.902;8.600;2022-12-11T01:52:36;-1.30;99.90
4985;DHT22;2509;49.902;8.600;2022-12-11T01:55:39;-1.30;99.90
4985;DHT22;2509;49.902;8.600;2022-12-11T01:58:45;-1.20;99.90
4985;DHT22;2509;49.902;8.600;2022-12-11T02:01:50;-1.20;99.90
4985;DHT22;2509;49.902;8.600;2022-12-11T02:04:55;-1.20;99.90
4985;DHT22;2509;49.902;8.600;2022-12-11T02:08:00;-1.20;99.90
4985;DHT22;2509;49.902;8.600;2022-12-11T02:11:07;-1.20;99.90
4985;DHT22;2509;49.902;8.600;2022-12-11T02:14:13;-1.20;99.90
4985;DHT22;2509;49.902;8.600;2022-12-11T02:17:20;-1.20;99.90
4985;DHT22;2509;49.902;8.600;2022-12-11T02:20:26;-1.10;99.90
4985;DHT22;2509;49.902;8.600;2022-12-11T02:23:56;-1.10;99.90
4985;DHT22;2509;49.902;8.600;2022-12-11T02:27:17;-1.10;99.90
4985;DHT22;2509;49.902;8.600;2022-12-11T02:30:22;-1.10;99.90
4985;DHT22;2509;49.902;8.600;2022-12-11T02:33:29;-1.10;99.90
4985;DHT22;2509;49.902;8.600;2022-12-11T02:36:37;-1.10;99.90
4985;DHT22;2509;49.902;8.600;2022-12-11T02:39:40;-1.10;99.90
4985;DHT22;2509;49.902;8.600;2022-12-11T02:42:44;-1.20;99.90
4985;DHT22;2509;49.902;8.600;2022-12-11T02:45:49;-1.20;99.90
4985;DHT22;2509;49.902;8.600;2022-12-11T02:48:52;-1.20;99.90
4985;DHT22;2509;49.902;8.600;2022-12-11T02:51:55;-1.20;99.90
4985;DHT22;2509;49.902;8.600;2022-12-11T02:54:59;-1.10;99.90
4985;DHT22;2509;49.902;8.600;2022-12-11T02:58:05;-1.10;99.90
4985;DHT22;2509;49.902;8.600;2022-12-11T03:01:09;-1.10;99.90
4985;DHT22;2509;49.902;8.600;2022-12-11T03:04:11;-1.10;99.90
4985;DHT22;2509;49.902;8.600;2022-12-11T03:07:15;-1.00;99.90
4985;DHT22;2509;49.902;8.600;2022-12-11T03:10:19;-1.00;99.90
4985;DHT22;2509;49.902;8.600;2022-12-11T03:13:21;-0.90;99.90
4985;DHT22;2509;49.902;8.600;2022-12-11T03:16:30;-0.90;99.90
4985;DHT22;2509;49.902;8.600;2022-12-11T03:19:37;-1.00;99.90
4985;DHT22;2509;49.902;8.600;2022-12-11T03:22:42;-1.00;99.90
4985;DHT22;2509;49.902;8.600;2022-12-11T03:25:52;-1.00;99.90
4985;DHT22;2509;49.902;8.600;2022-12-11T03:28:58;-1.00;99.90
4985;DHT22;2509;49.902;8.600;2022-12-11T03:32:06;-1.10;99.90
4985;DHT22;2509;49.902;8.600;2022-12-11T03:35:13;-1.10;99.90
4985;DHT22;2509;49.902;8.600;2022-12-11T03:38:19;-1.00;99.90
4985;DHT22;2509;49.902;8.600;2022-12-11T03:41:23;-1.00;99.90
4985;DHT22;2509;49.902;8.600;2022-12-11T03:44:27;-1.00;99.90
4985;DHT22;2509;49.902;8.600;2022-12-11T03:47:31;-0.90;99.90
4985;DHT22;2509;49.902;8.600;2022-12-11T03:50:34;-0.90;99.90
4985;DHT22;2509;49.902;8.600;2022-12-11T03:53:37;-0.90;99.90
4985;DHT22;2509;49.902;8.600;2022-12-11T03:56:40;-1.00;99.90
4985;DHT22;2509;49.902;8.600;2022-12-11T03:59:43;-0.90;99.90
4985;DHT22;2509;49.902;8.600;2022-12-11T04:02:46;-0.90;99.90
4985;DHT22;2509;49.902;8.600;2022-12-11T04:06:09;-0.80;99.90
4985;DHT22;2509;49.902;8.600;2022-12-11T04:09:10;-0.80;99.90
4985;DHT22;2509;49.902;8.600;2022-12-11T04:12:12;-0.80;99.90
4985;DHT22;2509;49.902;8.600;2022-12-11T04:15:14;-0.70;99.90
4985;DHT22;2509;49.902;8.600;2022-12-11T04:18:17;-0.80;99.90
4985;DHT22;2509;49.902;8.600;2022-12-11T04:21:36;-0.70;99.90
4985;DHT22;2509;49.902;8.600;2022-12-11T04:24:56;-0.70;99.90
4985;DHT22;2509;49.902;8.600;2022-12-11T04:27:57;-0.70;99.90
4985;DHT22;2509;49.902;8.600;2022-12-11T04:30:59;-0.70;99.90
4985;DHT22;2509;49.902;8.600;2022-12-11T04:34:03;-0.70;99.90
4985;DHT22;2509;49.902;8.600;2022-12-11T04:37:05;-0.70;99.90
4985;DHT22;2509;49.902;8.600;2022-12-11T04:40:10;-0.70;99.90
4985;DHT22;2509;49.902;8.600;2022-12-11T04:43:13;-0.70;99.90
4985;DHT22;2509;49.902;8.600;2022-12-11T04:46:17;-0.70;99.90
4985;DHT22;2509;49.902;8.600;2022-12-11T04:49:20;-0.70;99.90
4985;DHT22;2509;49.902;8.600;2022-12-11T04:52:22;-0.80;99.90
4985;DHT22;2509;49.902;8.600;2022-12-11T04:55:24;-0.70;99.90
4985;DHT22;2509;49.902;8.600;2022-12-11T04:58:26;-0.70;99.90
4985;DHT22;2509;49.902;8.600;2022-12-11T05:01:28;-0.80;99.90
4985;DHT22;2509;49.902;8.600;2022-12-11T05:04:32;-0.80;99.90
4985;DHT22;2509;49.902;8.600;2022-12-11T05:07:34;-0.80;99.90
4985;DHT22;2509;49.902;8.600;2022-12-11T05:10:36;-0.70;99.90
4985;DHT22;2509;49.902;8.600;2022-12-11T05:13:38;-0.70;99.90
4985;DHT22;2509;49.902;8.600;2022-12-11T05:16:40;-0.60;99.90
4985;DHT22;2509;49.902;8.600;2022-12-11T05:19:43;-0.70;99.90
4985;DHT22;2509;49.902;8.600;2022-12-11T05:22:47;-0.70;99.90
4985;DHT22;2509;49.902;8.600;2022-12-11T05:25:51;-0.70;99.90
4985;DHT22;2509;49.902;8.600;2022-12-11T05:28:53;-0.80;99.90
4985;DHT22;2509;49.902;8.600;2022-12-11T05:31:55;-0.80;99.90
4985;DHT22;2509;49.902;8.600;2022-12-11T05:34:58;-0.80;99.90
4985;DHT22;2509;49.902;8.600;2022-12-11T05:38:00;-0.80;99.90
4985;DHT22;2509;49.902;8.600;2022-12-11T05:41:03;-0.80;99.90
4985;DHT22;2509;49.902;8.600;2022-12-11T05:44:05;-0.80;99.90
4985;DHT22;2509;49.902;8.600;2022-12-11T05:47:07;-0.80;99.90
4985;DHT22;2509;49.902;8.600;2022-12-11T05:50:10;-0.80;99.90
4985;DHT22;2509;49.902;8.600;2022-12-11T05:53:12;-0.80;99.90
4985;DHT22;2509;49.902;8.600;2022-12-11T05:56:15;-0.80;99.90
4985;DHT22;2509;49.902;8.600;2022-12-11T05:59:17;-0.80;99.90
4985;DHT22;2509;49.902;8.600;2022-12-11T06:02:19;-0.80;99.90
4985;DHT22;2509;49.902;8.600;2022-12-11T06:05:22;-0.90;99.90
4985;DHT22;2509;49.902;8.600;2022-12-11T06:08:24;-0.80;99.90
4985;DHT22;2509;49.902;8.600;2022-12-11T06:11:27;-0.80;99.90
4985;DHT22;2509;49.902;8.600;2022-12-11T06:14:29;-0.80;99.90
4985;DHT22;2509;49.902;8.600;2022-12-11T06:17:31;-0.70;99.90
4985;DHT22;2509;49.902;8.600;2022-12-11T06:20:35;-0.70;99.90
4985;DHT22;2509;49.902;8.600;2022-12-11T06:23:37;-0.70;99.90
4985;DHT22;2509;49.902;8.600;2022-12-11T06:26:39;-0.70;99.90
4985;DHT22;2509;49.902;8.600;2022-12-11T06:29:41;-0.70;99.90
4985;DHT22;2509;49.902;8.600;2022-12-11T06:32:42;-0.80;99.90
4985;DHT22;2509;49.902;8.600;2022-12-11T06:35:45;-0.80;99.90
4985;DHT22;2509;49.902;8.600;2022-12-11T06:38:48;-0.70;99.90
4985;DHT22;2509;49.902;8.600;2022-12-11T06:41:50;-0.70;99.90
4985;DHT22;2509;49.902;8.600;2022-12-11T06:44:51;-0.70;99.90
4985;DHT22;2509;49.902;8.600;2022-12-11T06:47:53;-0.70;99.90
4985;DHT22;2509;49.902;8.600;2022-12-11T06:50:56;-0.70;99.90
4985;DHT22;2509;49.902;8.600;2022-12-11T06:53:58;-0.70;99.90
4985;DHT22;2509;49.902;8.600;2022-12-11T06:57:00;-0.70;99.90
4985;DHT22;2509;49.902;8.600;2022-12-11T07:00:02;-0.60;99.90
4985;DHT22;2509;49.902;8.600;2022-12-11T07:03:04;-0.60;99.90
4985;DHT22;2509;49.902;8.600;2022-12-11T07:06:07;-0.70;99.90
4985;DHT22;2509;49.902;8.600;2022-12-11T07:09:09;-0.60;99.90
4985;DHT22;2509;49.902;8.600;2022-12-11T07:12:11;-0.60;99.90
4985;DHT22;2509;49.902;8.600;2022-12-11T07:15:13;-0.70;99.90
4985;DHT22;2509;49.902;8.600;2022-12-11T07:18:14;-0.70;99.90
4985;DHT22;2509;49.902;8.600;2022-12-11T07:21:18;-0.70;99.90
4985;DHT22;2509;49.902;8.600;2022-12-11T07:24:20;-0.70;99.90
4985;DHT22;2509;49.902;8.600;2022-12-11T07:27:23;-0.70;99.90
4985;DHT22;2509;49.902;8.600;2022-12-11T07:30:25;-0.70;99.90
4985;DHT22;2509;49.902;8.600;2022-12-11T07:33:26;-0.60;99.90
4985;DHT22;2509;49.902;8.600;2022-12-11T07:36:30;-0.60;99.90
4985;DHT22;2509;49.902;8.600;2022-12-11T07:39:32;-0.60;99.90
4985;DHT22;2509;49.902;8.600;2022-12-11T07:42:34;-0.60;99.90
4985;DHT22;2509;49.902;8.600;2022-12-11T07:45:36;-0.60;99.90
4985;DHT22;2509;49.902;8.600;2022-12-11T07:48:39;-0.50;99.90
4985;DHT22;2509;49.902;8.600;2022-12-11T07:51:42;-0.50;99.90
4985;DHT22;2509;49.902;8.600;2022-12-11T07:54:44;-0.50;99.90
4985;DHT22;2509;49.902;8.600;2022-12-11T07:57:46;-0.50;99.90
4985;DHT22;2509;49.902;8.600;2022-12-11T08:00:48;-0.50;99.90
4985;DHT22;2509;49.902;8.600;2022-12-11T08:04:01;-0.50;99.90
4985;DHT22;2509;49.902;8.600;2022-12-11T08:07:10;-0.50;99.90
4985;DHT22;2509;49.902;8.600;2022-12-11T08:10:12;-0.50;99.90
4985;DHT22;2509;49.902;8.600;2022-12-11T08:13:14;-0.40;99.90
4985;DHT22;2509;49.902;8.600;2022-12-11T08:16:16;-0.40;99.90
4985;DHT22;2509;49.902;8.600;2022-12-11T08:19:18;-0.30;99.90
4985;DHT22;2509;49.902;8.600;2022-12-11T08:22:21;-0.30;99.90
4985;DHT22;2509;49.902;8.600;2022-12-11T08:25:22;-0.40;99.90
4985;DHT22;2509;49.902;8.600;2022-12-11T08:28:24;-0.30;99.90
4985;DHT22;2509;49.902;8.600;2022-12-11T08:31:26;-0.40;99.90
4985;DHT22;2509;49.902;8.600;2022-12-11T08:34:28;-0.30;99.90
4985;DHT22;2509;49.902;8.600;2022-12-11T08:37:32;-0.40;99.90
4985;DHT22;2509;49.902;8.600;2022-12-11T08:40:34;-0.40;99.90
4985;DHT22;2509;49.902;8.600;2022-12-11T08:43:36;-0.40;99.90
4985;DHT22;2509;49.902;8.600;2022-12-11T08:46:38;-0.50;99.90
4985;DHT22;2509;49.902;8.600;2022-12-11T08:49:40;-0.50;99.90
4985;DHT22;2509;49.902;8.600;2022-12-11T08:52:43;-0.50;99.90
4985;DHT22;2509;49.902;8.600;2022-12-11T08:55:45;-0.40;99.90
4985;DHT22;2509;49.902;8.600;2022-12-11T08:58:47;-0.40;99.90
4985;DHT22;2509;49.902;8.600;2022-12-11T09:01:48;-0.30;99.90
4985;DHT22;2509;49.902;8.600;2022-12-11T09:04:50;-0.20;99.90
4985;DHT22;2509;49.902;8.600;2022-12-11T09:07:53;-0.20;99.90
4985;DHT22;2509;49.902;8.600;2022-12-11T09:10:55;-0.20;99.90
4985;DHT22;2509;49.902;8.600;2022-12-11T09:13:56;-0.20;99.90
4985;DHT22;2509;49.902;8.600;2022-12-11T09:16:58;-0.20;99.90
4985;DHT22;2509;49.902;8.600;2022-12-11T09:20:00;-0.30;99.90
4985;DHT22;2509;49.902;8.600;2022-12-11T09:23:03;-0.20;99.90
4985;DHT22;2509;49.902;8.600;2022-12-11T09:26:05;-0.20;99.90
4985;DHT22;2509;49.902;8.600;2022-12-11T09:29:07;-0.10;99.90
4985;DHT22;2509;49.902;8.600;2022-12-11T09:32:09;-0.20;99.90
4985;DHT22;2509;49.902;8.600;2022-12-11T09:35:11;-0.20;99.90
4985;DHT22;2509;49.902;8.600;2022-12-11T09:38:14;-0.10;99.90
4985;DHT22;2509;49.902;8.600;2022-12-11T09:41:34;-0.10;99.90
4985;DHT22;2509;49.902;8.600;2022-12-11T09:44:41;0.00;99.90
4985;DHT22;2509;49.902;8.600;2022-12-11T09:47:47;0.00;99.90
4985;DHT22;2509;49.902;8.600;2022-12-11T09:50:52;-0.10;99.90
4985;DHT22;2509;49.902;8.600;2022-12-11T09:54:00;-0.10;99.90
4985;DHT22;2509;49.902;8.600;2022-12-11T09:57:11;-0.10;99.90
4985;DHT22;2509;49.902;8.600;2022-12-11T10:00:23;0.00;99.90
4985;DHT22;2509;49.902;8.600;2022-12-11T10:03:38;-0.10;99.90
4985;DHT22;2509;49.902;8.600;2022-12-11T10:06:46;-0.10;99.90
4985;DHT22;2509;49.902;8.600;2022-12-11T10:09:55;-0.10;99.90
4985;DHT22;2509;49.902;8.600;2022-12-11T10:13:05;-0.10;99.90
4985;DHT22;2509;49.902;8.600;2022-12-11T10:16:16;-0.10;99.90
4985;DHT22;2509;49.902;8.600;2022-12-11T10:19:22;-0.10;99.90
4985;DHT22;2509;49.902;8.600;2022-12-11T10:22:27;-0.10;99.90
4985;DHT22;2509;49.902;8.600;2022-12-11T10:25:35;-0.10;99.90
4985;DHT22;2509;49.902;8.600;2022-12-11T10:28:37;0.00;99.90
4985;DHT22;2509;49.902;8.600;2022-12-11T10:31:44;0.00;99.90
4985;DHT22;2509;49.902;8.600;2022-12-11T10:34:48;0.10;99.90
4985;DHT22;2509;49.902;8.600;2022-12-11T10:37:51;0.20;99.90
4985;DHT22;2509;49.902;8.600;2022-12-11T10:40:57;0.30;99.90
4985;DHT22;2509;49.902;8.600;2022-12-11T10:43:59;0.40;99.90
4985;DHT22;2509;49.902;8.600;2022-12-11T10:47:03;0.40;99.90
4985;DHT22;2509;49.902;8.600;2022-12-11T10:50:05;0.40;99.90
4985;DHT22;2509;49.902;8.600;2022-12-11T10:53:16;0.40;99.90
4985;DHT22;2509;49.902;8.600;2022-12-11T10:56:28;0.40;99.90
4985;DHT22;2509;49.902;8.600;2022-12-11T10:59:32;0.40;99.90
4985;DHT22;2509;49.902;8.600;2022-12-11T11:02:35;0.40;99.90
4985;DHT22;2509;49.902;8.600;2022-12-11T11:05:39;0.50;99.90
4985;DHT22;2509;49.902;8.600;2022-12-11T11:08:42;0.60;99.90
4985;DHT22;2509;49.902;8.600;2022-12-11T11:11:49;0.60;99.90
4985;DHT22;2509;49.902;8.600;2022-12-11T11:14:59;0.60;99.90
4985;DHT22;2509;49.902;8.600;2022-12-11T11:18:02;0.50;99.90
4985;DHT22;2509;49.902;8.600;2022-12-11T11:21:15;0.50;99.90
4985;DHT22;2509;49.902;8.600;2022-12-11T11:24:25;0.50;99.90
4985;DHT22;2509;49.902;8.600;2022-12-11T11:28:09;0.60;99.90
4985;DHT22;2509;49.902;8.600;2022-12-11T11:35:24;0.50;99.90
4985;DHT22;2509;49.902;8.600;2022-12-11T11:38:32;0.60;99.90
4985;DHT22;2509;49.902;8.600;2022-12-11T11:41:39;0.70;99.90
4985;DHT22;2509;49.902;8.600;2022-12-11T11:44:49;0.70;99.90
4985;DHT22;2509;49.902;8.600;2022-12-11T11:48:01;0.70;99.90
4985;DHT22;2509;49.902;8.600;2022-12-11T11:51:13;0.70;99.90
4985;DHT22;2509;49.902;8.600;2022-12-11T11:54:23;0.80;99.90
4985;DHT22;2509;49.902;8.600;2022-12-11T11:57:34;0.90;99.90
4985;DHT22;2509;49.902;8.600;2022-12-11T12:00:39;0.90;99.90
4985;DHT22;2509;49.902;8.600;2022-12-11T12:03:41;1.00;99.90
4985;DHT22;2509;49.902;8.600;2022-12-11T12:06:56;1.00;99.90
4985;DHT22;2509;49.902;8.600;2022-12-11T12:10:09;1.00;99.90
4985;DHT22;2509;49.902;8.600;2022-12-11T12:13:21;1.00;99.90
4985;DHT22;2509;49.902;8.600;2022-12-11T12:16:34;0.80;99.90
4985;DHT22;2509;49.902;8.600;2022-12-11T12:19:49;0.80;99.90
4985;DHT22;2509;49.902;8.600;2022-12-11T12:23:02;0.90;99.90
4985;DHT22;2509;49.902;8.600;2022-12-11T12:26:13;1.00;99.90
4985;DHT22;2509;49.902;8.600;2022-12-11T12:29:23;1.10;99.90
4985;DHT22;2509;49.902;8.600;2022-12-11T12:32:36;1.20;99.90
4985;DHT22;2509;49.902;8.600;2022-12-11T12:35:47;1.30;99.90
4985;DHT22;2509;49.902;8.600;2022-12-11T12:38:53;1.40;99.90
4985;DHT22;2509;49.902;8.600;2022-12-11T12:41:59;1.40;99.90
4985;DHT22;2509;49.902;8.600;2022-12-11T12:45:13;1.30;99.90
4985;DHT22;2509;49.902;8.600;2022-12-11T12:48:19;1.20;99.90
4985;DHT22;2509;49.902;8.600;2022-12-11T12:51:21;1.20;99.90
4985;DHT22;2509;49.902;8.600;2022-12-11T12:54:26;1.20;99.90
4985;DHT22;2509;49.902;8.600;2022-12-11T12:57:28;0.90;99.90
4985;DHT22;2509;49.902;8.600;2022-12-11T13:00:32;0.90;99.90
4985;DHT22;2509;49.902;8.600;2022-12-11T13:03:47;0.80;99.90
4985;DHT22;2509;49.902;8.600;2022-12-11T13:06:50;0.80;99.90
4985;DHT22;2509;49.902;8.600;2022-12-11T13:09:59;0.80;99.90
4985;DHT22;2509;49.902;8.600;2022-12-11T13:13:02;0.80;99.90
4985;DHT22;2509;49.902;8.600;2022-12-11T13:16:05;0.90;99.90
4985;DHT22;2509;49.902;8.600;2022-12-11T13:19:17;0.90;99.90
4985;DHT22;2509;49.902;8.600;2022-12-11T13:22:27;0.90;99.90
4985;DHT22;2509;49.902;8.600;2022-12-11T13:25:30;0.90;99.90
4985;DHT22;2509;49.902;8.600;2022-12-11T13:28:46;0.80;99.90
4985;DHT22;2509;49.902;8.600;2022-12-11T13:31:56;0.80;99.90
4985;DHT22;2509;49.902;8.600;2022-12-11T13:35:05;0.90;99.90
4985;DHT22;2509;49.902;8.600;2022-12-11T13:38:14;0.90;99.90
4985;DHT22;2509;49.902;8.600;2022-12-11T13:41:17;0.80;99.90
4985;DHT22;2509;49.902;8.600;2022-12-11T13:44:23;0.80;99.90
4985;DHT22;2509;49.902;8.600;2022-12-11T13:47:26;0.80;99.90
4985;DHT22;2509;49.902;8.600;2022-12-11T13:50:32;0.80;99.90
4985;DHT22;2509;49.902;8.600;2022-12-11T13:53:35;0.80;99.90
4985;DHT22;2509;49.902;8.600;2022-12-11T13:56:37;0.80;99.90
4985;DHT22;2509;49.902;8.600;2022-12-11T13:59:42;0.80;99.90
4985;DHT22;2509;49.902;8.600;2022-12-11T14:02:44;0.80;99.90
4985;DHT22;2509;49.902;8.600;2022-12-11T14:05:47;0.70;99.90
4985;DHT22;2509;49.902;8.600;2022-12-11T14:08:51;0.70;99.90
4985;DHT22;2509;49.902;8.600;2022-12-11T14:11:54;0.80;99.90
4985;DHT22;2509;49.902;8.600;2022-12-11T14:14:59;0.80;99.90
4985;DHT22;2509;49.902;8.600;2022-12-11T14:18:04;0.70;99.90
4985;DHT22;2509;49.902;8.600;2022-12-11T14:21:16;0.70;99.90
4985;DHT22;2509;49.902;8.600;2022-12-11T14:24:18;0.70;99.90
4985;DHT22;2509;49.902;8.600;2022-12-11T14:27:21;0.80;99.90
4985;DHT22;2509;49.902;8.600;2022-12-11T14:30:25;0.80;99.90
4985;DHT22;2509;49.902;8.600;2022-12-11T14:33:32;0.80;99.90
4985;DHT22;2509;49.902;8.600;2022-12-11T14:36:36;0.80;99.90
4985;DHT22;2509;49.902;8.600;2022-12-11T14:39:42;0.80;99.90
4985;DHT22;2509;49.902;8.600;2022-12-11T14:42:46;0.70;99.90
4985;DHT22;2509;49.902;8.600;2022-12-11T14:45:53;0.70;99.90
4985;DHT22;2509;49.902;8.600;2022-12-11T14:48:59;0.70;99.90
4985;DHT22;2509;49.902;8.600;2022-12-11T14:52:04;0.70;99.90
4985;DHT22;2509;49.902;8.600;2022-12-11T14:55:08;0.60;99.90
4985;DHT22;2509;49.902;8.600;2022-12-11T14:58:15;0.50;99.90
4985;DHT22;2509;49.902;8.600;2022-12-11T15:01:23;0.50;99.90
4985;DHT22;2509;49.902;8.600;2022-12-11T15:04:28;0.50;99.90
4985;DHT22;2509;49.902;8.600;2022-12-11T15:07:33;0.50;99.90
4985;DHT22;2509;49.902;8.600;2022-12-11T15:10:38;0.50;99.90
4985;DHT22;2509;49.902;8.600;2022-12-11T15:13:50;0.50;99.90
4985;DHT22;2509;49.902;8.600;2022-12-11T15:16:52;0.60;99.90
4985;DHT22;2509;49.902;8.600;2022-12-11T15:19:57;0.60;99.90
4985;DHT22;2509;49.902;8.600;2022-12-11T15:23:02;0.50;99.90
4985;DHT22;2509;49.902;8.600;2022-12-11T15:26:04;0.50;99.90
4985;DHT22;2509;49.902;8.600;2022-12-11T15:29:22;0.50;99.90
4985;DHT22;2509;49.902;8.600;2022-12-11T15:32:25;0.50;99.90
4985;DHT22;2509;49.902;8.600;2022-12-11T15:35:27;0.50;99.90
4985;DHT22;2509;49.902;8.600;2022-12-11T15:38:31;0.50;99.90
4985;DHT22;2509;49.902;8.600;2022-12-11T15:41:33;0.40;99.90
4985;DHT22;2509;49.902;8.600;2022-12-11T15:44:34;0.50;99.90
4985;DHT22;2509;49.902;8.600;2022-12-11T15:47:36;0.50;99.90
4985;DHT22;2509;49.902;8.600;2022-12-11T15:50:38;0.50;99.90
4985;DHT22;2509;49.902;8.600;2022-12-11T15:53:42;0.40;99.90
4985;DHT22;2509;49.902;8.600;2022-12-11T15:56:43;0.40;99.90
4985;DHT22;2509;49.902;8.600;2022-12-11T15:59:45;0.40;99.90
4985;DHT22;2509;49.902;8.600;2022-12-11T16:02:48;0.40;99.90
4985;DHT22;2509;49.902;8.600;2022-12-11T16:05:51;0.30;99.90
4985;DHT22;2509;49.902;8.600;2022-12-11T16:08:54;0.30;99.90
4985;DHT22;2509;49.902;8.600;2022-12-11T16:11:56;0.30;99.90
4985;DHT22;2509;49.902;8.600;2022-12-11T16:14:58;0.30;99.90
4985;DHT22;2509;49.902;8.600;2022-12-11T16:18:01;0.30;99.90
4985;DHT22;2509;49.902;8.600;2022-12-11T16:21:04;0.30;99.90
4985;DHT22;2509;49.902;8.600;2022-12-11T16:24:07;0.30;99.90
4985;DHT22;2509;49.902;8.600;2022-12-11T16:27:09;0.30;99.90
4985;DHT22;2509;49.902;8.600;2022-12-11T16:30:12;0.40;99.90
4985;DHT22;2509;49.902;8.600;2022-12-11T16:33:14;0.40;99.90
4985;DHT22;2509;49.902;8.600;2022-12-11T16:36:18;0.40;99.90
4985;DHT22;2509;49.902;8.600;2022-12-11T16:39:21;0.40;99.90
4985;DHT22;2509;49.902;8.600;2022-12-11T16:42:23;0.40;99.90
4985;DHT22;2509;49.902;8.600;2022-12-11T16:45:25;0.40;99.90
4985;DHT22;2509;49.902;8.600;2022-12-11T16:48:27;0.40;99.90
4985;DHT22;2509;49.902;8.600;2022-12-11T16:51:29;0.40;99.90
4985;DHT22;2509;49.902;8.600;2022-12-11T16:54:32;0.40;99.90
4985;DHT22;2509;49.902;8.600;2022-12-11T16:57:34;0.40;99.90
4985;DHT22;2509;49.902;8.600;2022-12-11T17:00:37;0.40;99.90
4985;DHT22;2509;49.902;8.600;2022-12-11T17:03:39;0.30;99.90
4985;DHT22;2509;49.902;8.600;2022-12-11T17:06:41;0.40;99.90
4985;DHT22;2509;49.902;8.600;2022-12-11T17:09:44;0.40;99.90
4985;DHT22;2509;49.902;8.600;2022-12-11T17:12:46;0.40;99.90
4985;DHT22;2509;49.902;8.600;2022-12-11T17:15:48;0.40;99.90
4985;DHT22;2509;49.902;8.600;2022-12-11T17:18:50;0.40;99.90
4985;DHT22;2509;49.902;8.600;2022-12-11T17:21:52;0.40;99.90
4985;DHT22;2509;49.902;8.600;2022-12-11T17:24:56;0.40;99.90
4985;DHT22;2509;49.902;8.600;2022-12-11T17:27:58;0.30;99.90
4985;DHT22;2509;49.902;8.600;2022-12-11T17:31:03;0.30;99.90
4985;DHT22;2509;49.902;8.600;2022-12-11T17:34:05;0.30;99.90
4985;DHT22;2509;49.902;8.600;2022-12-11T17:37:07;0.30;99.90
4985;DHT22;2509;49.902;8.600;2022-12-11T17:40:10;0.30;99.90
4985;DHT22;2509;49.902;8.600;2022-12-11T17:43:12;0.40;99.90
4985;DHT22;2509;49.902;8.600;2022-12-11T17:46:14;0.40;99.90
4985;DHT22;2509;49.902;8.600;2022-12-11T17:49:16;0.40;99.90
4985;DHT22;2509;49.902;8.600;2022-12-11T17:52:18;0.40;99.90
4985;DHT22;2509;49.902;8.600;2022-12-11T17:55:21;0.40;99.90
4985;DHT22;2509;49.902;8.600;2022-12-11T17:58:22;0.40;99.90
4985;DHT22;2509;49.902;8.600;2022-12-11T18:01:24;0.40;99.90
4985;DHT22;2509;49.902;8.600;2022-12-11T18:04:26;0.40;99.90
4985;DHT22;2509;49.902;8.600;2022-12-11T18:07:28;0.40;99.90
4985;DHT22;2509;49.902;8.600;2022-12-11T18:10:31;0.40;99.90
4985;DHT22;2509;49.902;8.600;2022-12-11T18:13:35;0.30;99.90
4985;DHT22;2509;49.902;8.600;2022-12-11T18:16:38;0.40;99.90
4985;DHT22;2509;49.902;8.600;2022-12-11T18:19:39;0.40;99.90
4985;DHT22;2509;49.902;8.600;2022-12-11T18:22:41;0.40;99.90
4985;DHT22;2509;49.902;8.600;2022-12-11T18:25:44;0.40;99.90
4985;DHT22;2509;49.902;8.600;2022-12-11T18:28:47;0.30;99.90
4985;DHT22;2509;49.902;8.600;2022-12-11T18:31:49;0.30;99.90
4985;DHT22;2509;49.902;8.600;2022-12-11T18:34:51;0.20;99.90
4985;DHT22;2509;49.902;8.600;2022-12-11T18:37:53;0.20;99.90
4985;DHT22;2509;49.902;8.600;2022-12-11T18:40:56;0.30;99.90
4985;DHT22;2509;49.902;8.600;2022-12-11T18:43:58;0.30;99.90
4985;DHT22;2509;49.902;8.600;2022-12-11T18:47:00;0.30;99.90
4985;DHT22;2509;49.902;8.600;2022-12-11T18:50:03;0.30;99.90
4985;DHT22;2509;49.902;8.600;2022-12-11T18:53:04;0.30;99.90
4985;DHT22;2509;49.902;8.600;2022-12-11T18:56:10;0.30;99.90
4985;DHT22;2509;49.902;8.600;2022-12-11T18:59:12;0.30;99.90
4985;DHT22;2509;49.902;8.600;2022-12-11T19:02:14;0.20;99.90
4985;DHT22;2509;49.902;8.600;2022-12-11T19:05:16;0.20;99.90
4985;DHT22;2509;49.902;8.600;2022-12-11T19:08:17;0.20;99.90
4985;DHT22;2509;49.902;8.600;2022-12-11T19:11:24;0.20;99.90
4985;DHT22;2509;49.902;8.600;2022-12-11T19:14:26;0.20;99.90
4985;DHT22;2509;49.902;8.600;2022-12-11T19:17:27;0.20;99.90
4985;DHT22;2509;49.902;8.600;2022-12-11T19:20:29;0.20;99.90
4985;DHT22;2509;49.902;8.600;2022-12-11T19:23:31;0.10;99.90
4985;DHT22;2509;49.902;8.600;2022-12-11T19:26:34;0.10;99.90
4985;DHT22;2509;49.902;8.600;2022-12-11T19:29:36;0.10;99.90
4985;DHT22;2509;49.902;8.600;2022-12-11T19:32:38;0.10;99.90
4985;DHT22;2509;49.902;8.600;2022-12-11T19:35:40;0.10;99.90
4985;DHT22;2509;49.902;8.600;2022-12-11T19:38:42;0.10;99.90
4985;DHT22;2509;49.902;8.600;2022-12-11T19:41:47;0.10;99.90
4985;DHT22;2509;49.902;8.600;2022-12-11T19:44:49;0.10;99.90
4985;DHT22;2509;49.902;8.600;2022-12-11T19:47:51;0.10;99.90
4985;DHT22;2509;49.902;8.600;2022-12-11T19:50:52;0.10;99.90
4985;DHT22;2509;49.902;8.600;2022-12-11T19:53:54;0.10;99.90
4985;DHT22;2509;49.902;8.600;2022-12-11T19:56:58;0.10;99.90
4985;DHT22;2509;49.902;8.600;2022-12-11T19:59:59;0.10;99.90
4985;DHT22;2509;49.902;8.600;2022-12-11T20:03:02;0.10;99.90
4985;DHT22;2509;49.902;8.600;2022-12-11T20:06:06;0.00;99.90
4985;DHT22;2509;49.902;8.600;2022-12-11T20:09:09;0.00;99.90
4985;DHT22;2509;49.902;8.600;2022-12-11T20:12:13;0.10;99.90
4985;DHT22;2509;49.902;8.600;2022-12-11T20:15:15;0.10;99.90
4985;DHT22;2509;49.902;8.600;2022-12-11T20:18:19;0.10;99.90